ADDS METAR Data INFO
IDs: Format: Raw Decoded Include TAF

Data at: 1315 UTC 19 Jul 2018

KSAW 191247Z 19003KT 10SM SKC 16/14 A3002
KSAW 191147Z 20003KT 10SM SKC 13/12 A3002
KSAW 191047Z 19004KT 10SM MIFG SKC 12/11 A3003
KSAW 190958Z AUTO 19004KT 10SM CLR 12/11 A3003 RMK AO2 T01220112
KSAW 190938Z AUTO 19003KT 10SM CLR 12/11 A3003 RMK AO2 T01230112
KSAW 190918Z AUTO 19005KT 10SM CLR 12/11 A3003 RMK AO2 T01210110
KSAW 190858Z AUTO 19003KT 10SM CLR 12/11 A3003 RMK AO2 T01210110
KSAW 190838Z AUTO 20003KT 10SM CLR 13/11 A3003 RMK AO2 T01250111
KSAW 190818Z AUTO 19004KT 10SM CLR 13/11 A3003 RMK AO2 T01260113
KSAW 190758Z AUTO 20003KT 10SM CLR 13/11 A3003 RMK AO2 T01280113
KSAW 190738Z AUTO 00000KT 10SM CLR 13/11 A3004 RMK AO2 T01320114
KSAW 190719Z AUTO 00000KT 10SM CLR 14/12 A3004 RMK AO2 T01350116
KSAW 190658Z AUTO 20003KT 10SM CLR 14/12 A3004 RMK AO2 T01370117
KSAW 190638Z AUTO 19004KT 10SM CLR 14/12 A3004 RMK AO2 T01360116
KSAW 190618Z AUTO 19005KT 10SM CLR 14/12 A3004 RMK AO2 T01400116
KSAW 190558Z AUTO 19004KT 10SM CLR 14/12 A3004 RMK AO2 T01430117 10240 20143 402530043
KSAW 190538Z AUTO 19004KT 10SM CLR 15/12 A3004 RMK AO2 T01460118
KSAW 190518Z AUTO 18005KT 10SM CLR 15/12 A3004 RMK AO2 T01520120
KSAW 190458Z AUTO 16005KT 10SM CLR 16/12 A3004 RMK AO2 T01550120
KSAW 190438Z AUTO 18005KT 10SM CLR 16/12 A3004 RMK AO2 T01600121
KSAW 190418Z AUTO 18006KT 10SM CLR 16/12 A3004 RMK AO2 T01630122
KSAW 190358Z AUTO 16006KT 10SM CLR 16/12 A3003 RMK AO2 T01630122
KSAW 190338Z AUTO 17005KT 10SM CLR 17/12 A3004 RMK AO2 T01680122
KSAW 190318Z AUTO 17006KT 10SM CLR 17/12 A3004 RMK AO2 T01720123
KSAW 190258Z AUTO 17006KT 10SM CLR 18/12 A3003 RMK AO2 T01770123
KSAW 190238Z AUTO 17007KT 10SM CLR 19/13 A3004 RMK AO2 T01860125
KSAW 190218Z AUTO 17008KT 10SM CLR 19/13 A3004 RMK AO2 T01910125
KSAW 190145Z 18008KT 10SM SKC 20/12 A3003
KSAW 190045Z 19004KT 10SM SKC 23/11 A3003
KSAW 182345Z 07003KT 10SM SKC 24/10 A3004
KSAW 182245Z 07003KT 10SM FEW060 24/10 A3005
KSAW 182145Z 15003KT 10SM SCT060 24/09 A3005
KSAW 182047Z 23005KT 10SM BKN060 24/09 A3007
KSAW 181945Z 14005KT 10SM SCT060 23/09 A3008
KSAW 181847Z 00000KT 10SM BKN060 23/08 A3010
KSAW 181748Z 10006KT 10SM SCT050 23/09 A3011
KSAW 181647Z 25005KT 10SM SCT050 21/08 A3013
KSAW 181547Z 23004KT 10SM SCT047 21/08 A3014
KSAW 181447Z 26007KT 10SM SKC 19/10 A3014
KSAW 181347Z 25006KT 10SM SKC 16/11 A3016
KSAW 181247Z 23004KT 10SM SKC 12/10 A3017
KSAW 181147Z 00000KT 10SM SKC 09/07 A3017
KSAW 181055Z 00000KT 10SM SKC 05/03 A3016
KSAW 180958Z AUTO 00000KT 10SM CLR 05/03 A3016 RMK AO2 T00480032
KSAW 180938Z AUTO 00000KT 10SM CLR 06/05 A3016 RMK AO2 T00630046
KSAW 180918Z AUTO 00000KT 10SM CLR 07/06 A3016 RMK AO2 T00720062
KSAW 180858Z AUTO 00000KT 10SM CLR 07/05 A3016 RMK AO2 T00650052
KSAW 180838Z AUTO 20003KT 10SM CLR 07/06 A3016 RMK AO2 T00680056
KSAW 180818Z AUTO 00000KT 10SM CLR 06/05 A3016 RMK AO2 T00570047
KSAW 180758Z AUTO 00000KT 4SM BR CLR 06/05 RMK AO2 T00590047
KSAW 180738Z AUTO 00000KT 10SM CLR 06/05 A3016 RMK AO2 T00620052
KSAW 180718Z AUTO 00000KT 10SM CLR 05/04 A3015 RMK AO2 T00490037
KSAW 180658Z AUTO 00000KT 10SM CLR 06/05 A3015 RMK AO2 T00640049
KSAW 180638Z AUTO 00000KT 10SM CLR 07/05 A3014 RMK AO2 T00660048
KSAW 180618Z AUTO 00000KT 10SM CLR 08/07 A3014 RMK AO2 T00810066
KSAW 180558Z AUTO 00000KT 10SM CLR 08/07 A3014 RMK AO2 T00770065 10148 20070 401660070
KSAW 180538Z AUTO 00000KT 10SM CLR 07/06 A3014 RMK AO2 T00730060
KSAW 180518Z AUTO 00000KT 10SM CLR 08/06 A3014 RMK AO2 T00790062
KSAW 180458Z AUTO 00000KT 10SM CLR 08/06 A3014 RMK AO2 T00790063
KSAW 180438Z AUTO 00000KT 10SM CLR 08/06 A3014 RMK AO2 T00820061
KSAW 180418Z AUTO 00000KT 10SM CLR 09/07 A3014 RMK AO2 T00880065
KSAW 180358Z AUTO 31003KT 10SM CLR 08/06 A3014 RMK AO2 T00800059
KSAW 180339Z AUTO 33004KT 10SM CLR 09/07 A3014 RMK AO2 T00900066
KSAW 180318Z AUTO 00000KT 10SM CLR 10/07 A3014 RMK AO2 T00960067
KSAW 180258Z AUTO 00000KT 10SM CLR 11/07 A3014 RMK AO2 T01060072
KSAW 180238Z AUTO 00000KT 10SM CLR 11/07 A3014 RMK AO2 T01070072
KSAW 180218Z AUTO 36004KT 10SM CLR 11/08 A3014 RMK AO2 T01120076
KSAW 180145Z 04005KT 10SM SKC 13/08 A3014